createdAt,value
2019-02-08T00:01:23.000Z,101026.02
2019-02-08T00:03:52.212Z,101030.97
2019-02-08T00:06:21.453Z,101030.97
2019-02-08T00:08:50.625Z,101034.95
2019-02-08T00:11:19.732Z,101016.10
2019-02-08T00:13:48.848Z,101016.10
2019-02-08T00:16:18.006Z,101016.23
2019-02-08T00:18:47.459Z,101021.30
2019-02-08T00:21:16.598Z,101021.30
2019-02-08T00:23:47.076Z,101020.64
2019-02-08T00:26:16.254Z,101025.48
2019-02-08T00:28:45.347Z,101018.20
2019-02-08T00:31:14.545Z,101020.41
2019-02-08T00:33:43.967Z,101018.30
2019-02-08T00:36:13.064Z,101018.30
2019-02-08T00:38:42.155Z,101017.59
2019-02-08T00:41:11.226Z,101024.30
2019-02-08T00:43:40.232Z,101024.30
2019-02-08T00:46:09.365Z,101025.86
2019-02-08T00:48:38.393Z,101025.25
2019-02-08T00:51:07.524Z,101025.25
2019-02-08T00:53:36.602Z,101024.80
2019-02-08T00:56:06.235Z,101013.62
2019-02-08T00:58:35.241Z,101013.62
2019-02-08T01:01:05.521Z,101019.08
2019-02-08T01:03:34.675Z,101018.18
2019-02-08T01:06:04.545Z,101018.18
2019-02-08T01:08:33.624Z,101023.73
2019-02-08T01:11:02.705Z,101016.69
2019-02-08T01:13:31.776Z,101023.02
2019-02-08T01:16:00.996Z,101026.19
2019-02-08T01:18:30.139Z,101025.48
2019-02-08T01:20:59.191Z,101025.48
2019-02-08T01:23:28.260Z,101023.94
2019-02-08T01:25:57.360Z,101024.55
2019-02-08T01:28:26.411Z,101019.08
2019-02-08T01:30:55.586Z,101019.02
2019-02-08T01:33:24.704Z,101028.50
2019-02-08T01:35:53.778Z,101025.99
2019-02-08T01:38:22.879Z,101039.44
2019-02-08T01:40:54.392Z,101040.70
2019-02-08T01:43:23.404Z,101040.70
2019-02-08T01:45:52.909Z,101032.50
2019-02-08T01:48:21.927Z,101026.60
2019-02-08T01:50:50.950Z,101026.60
2019-02-08T01:53:20.017Z,101017.05
2019-02-08T01:55:49.059Z,101027.87
2019-02-08T01:58:20.345Z,101023.58
2019-02-08T02:00:51.699Z,101022.11
2019-02-08T02:03:21.226Z,101026.63
2019-02-08T02:05:50.341Z,101017.91
2019-02-08T02:08:20.148Z,101013.53
2019-02-08T02:10:49.325Z,101018.66
2019-02-08T02:13:18.633Z,101016.01
2019-02-08T02:15:47.789Z,101012.61
2019-02-08T02:18:16.976Z,101009.25
2019-02-08T02:20:49.523Z,101009.25
2019-02-08T02:23:18.804Z,101007.00
2019-02-08T02:25:47.919Z,100998.83
2019-02-08T02:28:17.002Z,100998.83
2019-02-08T02:30:46.115Z,100999.33
2019-02-08T02:33:15.404Z,101007.41
2019-02-08T02:35:44.651Z,101002.66
2019-02-08T02:38:15.072Z,101000.77
2019-02-08T02:40:44.246Z,101000.77
2019-02-08T02:43:13.484Z,101002.22
2019-02-08T02:45:42.666Z,100992.96
2019-02-08T02:48:13.774Z,100992.24
2019-02-08T02:50:42.918Z,100990.48
2019-02-08T02:53:12.199Z,100995.31
2019-02-08T02:55:41.377Z,100991.81
2019-02-08T02:58:10.578Z,100991.81
2019-02-08T03:00:42.068Z,100988.09
2019-02-08T03:03:13.328Z,100987.61
2019-02-08T03:05:44.165Z,100984.65
2019-02-08T03:08:15.854Z,100984.65
2019-02-08T03:10:45.271Z,100975.59
2019-02-08T03:13:14.634Z,100975.59
2019-02-08T03:15:43.713Z,100968.91
2019-02-08T03:18:12.888Z,100969.52
2019-02-08T03:20:42.051Z,100969.52
2019-02-08T03:23:11.291Z,100970.98
2019-02-08T03:25:42.938Z,100960.28
2019-02-08T03:28:13.085Z,100963.90
2019-02-08T03:30:49.039Z,100956.70
2019-02-08T03:33:18.183Z,100948.77
2019-02-08T03:35:47.334Z,100947.62
2019-02-08T03:38:16.544Z,100948.95
2019-02-08T03:40:45.624Z,100951.89
2019-02-08T03:43:14.836Z,100949.52
2019-02-08T03:45:44.218Z,100949.52
2019-02-08T03:48:13.917Z,100961.75
2019-02-08T03:50:43.091Z,100952.80
2019-02-08T03:53:12.450Z,100954.59
2019-02-08T03:55:41.584Z,100954.59
2019-02-08T03:58:11.263Z,100947.48
2019-02-08T04:00:51.140Z,100947.48
2019-02-08T04:03:20.312Z,100938.13
2019-02-08T04:05:49.454Z,100948.38
2019-02-08T04:08:21.369Z,100942.41
2019-02-08T04:10:50.909Z,100942.41
2019-02-08T04:13:20.085Z,100940.22
2019-02-08T04:15:49.173Z,100950.75
2019-02-08T04:18:18.284Z,100933.36
2019-02-08T04:20:47.468Z,100941.33
2019-02-08T04:23:16.548Z,100931.11
2019-02-08T04:25:45.741Z,100926.41
2019-02-08T04:28:14.716Z,100925.95
2019-02-08T04:30:45.130Z,100925.95
2019-02-08T04:33:14.221Z,100925.95
2019-02-08T04:35:44.729Z,100915.36
2019-02-08T04:38:13.829Z,100915.36
2019-02-08T04:40:42.845Z,100921.91
2019-02-08T04:43:12.034Z,100906.92
2019-02-08T04:45:41.222Z,100910.16
2019-02-08T04:48:10.352Z,100916.67
2019-02-08T04:50:39.365Z,100916.67
2019-02-08T04:53:08.469Z,100919.32
2019-02-08T04:55:38.081Z,100919.32
2019-02-08T04:58:07.155Z,100930.57
2019-02-08T05:00:37.268Z,100930.57
2019-02-08T05:03:06.700Z,100932.23
2019-02-08T05:05:35.862Z,100917.56
2019-02-08T05:08:05.645Z,100924.53
2019-02-08T05:10:35.235Z,100924.53
2019-02-08T05:13:04.741Z,100916.80
2019-02-08T05:15:36.410Z,100916.80
2019-02-08T05:18:06.891Z,100913.59
2019-02-08T05:20:36.083Z,100910.12
2019-02-08T05:23:05.290Z,100900.44
2019-02-08T05:25:34.468Z,100906.00
2019-02-08T05:28:03.627Z,100906.00
2019-02-08T05:30:34.350Z,100901.70
2019-02-08T05:33:03.725Z,100902.53
2019-02-08T05:35:32.913Z,100893.30
2019-02-08T05:38:02.079Z,100887.56
2019-02-08T05:40:31.248Z,100887.56
2019-02-08T05:43:00.391Z,100885.63
2019-02-08T05:45:30.259Z,100885.63
2019-02-08T05:47:59.286Z,100892.23
2019-02-08T05:50:28.680Z,100880.45
2019-02-08T05:52:57.849Z,100885.95
2019-02-08T05:55:28.803Z,100877.95
2019-02-08T05:57:58.038Z,100876.65
2019-02-08T06:00:39.288Z,100871.41
2019-02-08T06:03:08.770Z,100871.08
2019-02-08T06:05:38.767Z,100873.88
2019-02-08T06:08:09.767Z,100865.02
2019-02-08T06:10:38.934Z,100866.17
2019-02-08T06:13:08.574Z,100856.08
2019-02-08T06:15:37.794Z,100867.45
2019-02-08T06:18:08.064Z,100860.98
2019-02-08T06:20:37.669Z,100865.24
2019-02-08T06:23:07.407Z,100860.00
2019-02-08T06:25:36.690Z,100864.84
2019-02-08T06:28:06.487Z,100864.84
2019-02-08T06:30:37.205Z,100859.87
2019-02-08T06:33:07.182Z,100861.14
2019-02-08T06:35:36.538Z,100861.14
2019-02-08T06:38:08.510Z,100851.26
2019-02-08T06:40:40.952Z,100855.86
2019-02-08T06:43:10.125Z,100855.86
2019-02-08T06:45:39.431Z,100860.03
2019-02-08T06:48:09.990Z,100857.89
2019-02-08T06:50:40.188Z,100855.13
2019-02-08T06:53:09.365Z,100842.52
2019-02-08T06:55:38.501Z,100860.60
2019-02-08T06:58:27.506Z,100860.60
2019-02-08T07:01:11.193Z,100859.03
2019-02-08T07:04:08.625Z,100852.27
2019-02-08T07:06:55.578Z,100860.13
2019-02-08T07:09:58.864Z,100858.50
2019-02-08T07:12:58.854Z,100858.50
2019-02-08T07:15:38.085Z,100857.83
2019-02-08T07:18:15.079Z,100857.83
2019-02-08T07:21:12.412Z,100855.22
2019-02-08T07:23:59.146Z,100861.95
2019-02-08T07:26:47.263Z,100863.16
2019-02-08T07:29:34.491Z,100863.16
2019-02-08T07:32:21.677Z,100858.41
2019-02-08T07:35:14.178Z,100861.72
2019-02-08T07:38:05.087Z,100858.85
2019-02-08T07:40:49.291Z,100856.05
2019-02-08T07:43:47.183Z,100848.60
2019-02-08T07:46:32.497Z,100850.73
2019-02-08T07:49:23.844Z,100850.73
2019-02-08T07:52:11.930Z,100849.44
2019-02-08T07:55:05.632Z,100846.22
2019-02-08T07:58:08.996Z,100846.22
2019-02-08T08:01:03.200Z,100845.82
2019-02-08T08:04:07.405Z,100845.82
2019-02-08T08:06:58.982Z,100852.62
2019-02-08T08:09:53.005Z,100841.22
2019-02-08T08:12:29.630Z,100843.79
2019-02-08T08:15:22.018Z,100850.89
2019-02-08T08:18:28.366Z,100841.14
2019-02-08T08:21:16.947Z,100845.64
2019-02-08T08:24:13.944Z,100834.13
2019-02-08T08:26:59.772Z,100828.55
2019-02-08T08:29:36.176Z,100825.94
2019-02-08T08:32:14.110Z,100824.63
2019-02-08T08:35:23.362Z,100823.80
2019-02-08T08:38:17.528Z,100803.46
2019-02-08T08:41:03.934Z,100803.46
2019-02-08T08:44:11.427Z,100802.66
2019-02-08T08:47:18.103Z,100811.91
2019-02-08T08:50:20.802Z,100799.65
2019-02-08T08:53:15.907Z,100803.08
2019-02-08T08:56:28.745Z,100794.71
2019-02-08T08:59:18.323Z,100796.11
2019-02-08T09:02:05.020Z,100794.30
2019-02-08T09:05:03.458Z,100792.52
2019-02-08T09:08:04.632Z,100793.13
2019-02-08T09:11:28.927Z,100793.13
2019-02-08T09:14:54.285Z,100773.77
2019-02-08T09:17:46.137Z,100771.62
2019-02-08T09:20:57.905Z,100775.55
2019-02-08T09:24:07.878Z,100770.42
2019-02-08T09:27:10.855Z,100767.49
2019-02-08T09:30:05.365Z,100767.81
2019-02-08T09:33:17.302Z,100765.66
2019-02-08T09:36:20.528Z,100765.66
2019-02-08T09:39:41.715Z,100757.66
2019-02-08T09:42:59.853Z,100764.17
2019-02-08T09:46:06.268Z,100764.17
2019-02-08T09:49:18.469Z,100764.30
2019-02-08T09:52:41.167Z,100759.61
2019-02-08T09:55:57.835Z,100764.50
2019-02-08T09:58:59.995Z,100761.75
2019-02-08T10:01:55.510Z,100756.08
2019-02-08T10:08:26.279Z,100742.15
2019-02-08T10:11:33.750Z,100736.19
2019-02-08T10:14:52.786Z,100735.16
2019-02-08T10:17:57.776Z,100727.45
2019-02-08T10:21:14.154Z,100731.14
2019-02-08T10:24:04.863Z,100722.88
2019-02-08T10:27:33.694Z,100722.12
2019-02-08T10:30:58.168Z,100717.89
2019-02-08T10:37:19.543Z,100714.36
2019-02-08T10:40:25.972Z,100714.36
2019-02-08T10:43:45.212Z,100705.56
2019-02-08T10:46:40.423Z,100719.85
2019-02-08T10:50:14.954Z,100719.85
2019-02-08T10:53:26.847Z,100711.34
2019-02-08T10:56:44.229Z,100698.41
2019-02-08T10:59:56.971Z,100698.41
2019-02-08T11:03:11.393Z,100683.39
2019-02-08T11:06:33.650Z,100698.56
2019-02-08T11:09:39.750Z,100698.56
2019-02-08T11:12:39.766Z,100696.55
2019-02-08T11:15:59.613Z,100682.44
2019-02-08T11:19:21.147Z,100682.44
2019-02-08T11:21:51.624Z,100681.00
2019-02-08T11:26:55.086Z,100660.00
2019-02-08T11:29:24.340Z,100655.30
2019-02-08T11:31:53.786Z,100649.08
2019-02-08T11:34:22.980Z,100638.28
2019-02-08T11:36:52.156Z,100640.24
2019-02-08T11:39:21.448Z,100634.33
2019-02-08T11:41:51.464Z,100634.33
2019-02-08T11:44:22.281Z,100637.00
2019-02-08T11:46:51.639Z,100616.87
2019-02-08T11:49:20.819Z,100616.87
2019-02-08T11:51:49.976Z,100603.88
2019-02-08T11:54:19.748Z,100605.14
2019-02-08T11:56:49.162Z,100602.51
2019-02-08T12:01:53.228Z,100592.94
2019-02-08T12:04:22.815Z,100592.94
2019-02-08T12:06:51.947Z,100592.48
2019-02-08T12:09:20.964Z,100588.98
2019-02-08T12:11:50.102Z,100588.74
2019-02-08T12:14:19.231Z,100588.74
2019-02-08T12:16:48.352Z,100580.58
2019-02-08T12:19:17.467Z,100580.58
2019-02-08T12:21:46.621Z,100574.22
2019-02-08T12:24:15.856Z,100574.22
2019-02-08T12:26:45.214Z,100577.50
2019-02-08T12:29:14.401Z,100557.50
2019-02-08T12:31:43.500Z,100562.06
2019-02-08T12:34:12.692Z,100553.83
2019-02-08T12:36:41.840Z,100553.83
2019-02-08T12:39:12.124Z,100531.78
2019-02-08T12:41:41.857Z,100531.78
2019-02-08T12:46:40.355Z,100517.92
2019-02-08T12:49:09.430Z,100517.92
2019-02-08T12:51:38.606Z,100510.63
2019-02-08T12:54:07.776Z,100512.34
2019-02-08T12:56:36.930Z,100506.13
2019-02-08T12:59:07.702Z,100493.20
2019-02-08T13:01:37.992Z,100478.85
2019-02-08T13:06:45.288Z,100488.85
2019-02-08T13:09:15.961Z,100475.87
2019-02-08T13:11:45.008Z,100466.42
2019-02-08T13:14:14.055Z,100473.61
2019-02-08T13:16:43.067Z,100456.66
2019-02-08T13:19:12.219Z,100463.91
2019-02-08T13:21:41.408Z,100462.57
2019-02-08T13:24:10.572Z,100446.75
2019-02-08T13:26:39.689Z,100427.11
2019-02-08T13:29:08.871Z,100427.11
2019-02-08T13:31:37.845Z,100446.11
2019-02-08T13:34:08.929Z,100451.75
2019-02-08T13:36:38.002Z,100437.64
2019-02-08T13:39:09.584Z,100430.48
2019-02-08T13:41:38.648Z,100422.91
2019-02-08T13:44:12.975Z,100422.91
2019-02-08T13:46:42.043Z,100421.09
2019-02-08T13:51:39.277Z,100403.26
2019-02-08T13:54:08.463Z,100409.18
2019-02-08T13:56:37.649Z,100404.38
2019-02-08T13:59:06.803Z,100404.38
2019-02-08T14:01:36.068Z,100404.09
2019-02-08T14:04:05.720Z,100406.92
2019-02-08T14:06:34.809Z,100406.92
2019-02-08T14:09:05.106Z,100383.27
2019-02-08T14:11:34.182Z,100371.05
2019-02-08T14:14:03.344Z,100371.05
2019-02-08T14:19:00.549Z,100372.53
2019-02-08T14:21:29.682Z,100376.73
2019-02-08T14:23:58.805Z,100356.42
2019-02-08T14:26:28.021Z,100371.09
2019-02-08T14:28:57.015Z,100363.08
2019-02-08T14:31:26.088Z,100355.63
2019-02-08T14:33:55.121Z,100361.38
2019-02-08T14:36:24.210Z,100361.38
2019-02-08T14:38:53.236Z,100343.34
2019-02-08T14:41:22.348Z,100347.91
2019-02-08T14:43:51.464Z,100343.70
2019-02-08T14:46:20.559Z,100340.17
2019-02-08T14:48:49.625Z,100343.27
2019-02-08T14:51:18.850Z,100343.27
2019-02-08T14:53:47.906Z,100336.34
2019-02-08T14:56:16.929Z,100326.42
2019-02-08T14:58:45.966Z,100320.17
2019-02-08T15:03:50.097Z,100310.77
2019-02-08T15:06:19.362Z,100328.34
2019-02-08T15:08:48.366Z,100285.86
2019-02-08T15:11:18.529Z,100295.14
2019-02-08T15:13:47.605Z,100295.14
2019-02-08T15:18:44.836Z,100286.23
2019-02-08T15:21:14.032Z,100286.23
2019-02-08T15:23:43.078Z,100274.29
2019-02-08T15:26:12.250Z,100269.02
2019-02-08T15:28:41.224Z,100273.83
2019-02-08T15:31:10.356Z,100273.83
2019-02-08T15:33:39.439Z,100262.65
2019-02-08T15:36:08.570Z,100262.58
2019-02-08T15:38:37.594Z,100254.91
2019-02-08T15:41:06.752Z,100256.45
2019-02-08T15:43:35.830Z,100256.11
2019-02-08T15:46:07.006Z,100257.73
2019-02-08T15:48:36.208Z,100257.73
2019-02-08T15:51:05.498Z,100242.83
2019-02-08T15:53:34.521Z,100259.28
2019-02-08T15:56:07.534Z,100241.55
2019-02-08T15:58:36.611Z,100241.55
2019-02-08T16:01:10.016Z,100250.47
2019-02-08T16:03:39.114Z,100239.38
2019-02-08T16:06:08.430Z,100232.53
2019-02-08T16:08:39.055Z,100224.27
2019-02-08T16:11:08.189Z,100215.34
2019-02-08T16:13:37.321Z,100218.62
2019-02-08T16:16:07.785Z,100218.62
2019-02-08T16:18:36.913Z,100217.90
2019-02-08T16:23:40.978Z,100212.52
2019-02-08T16:26:11.627Z,100200.06
2019-02-08T16:28:40.771Z,100194.14
2019-02-08T16:31:14.944Z,100194.14
2019-02-08T16:33:43.931Z,100185.50
2019-02-08T16:36:13.155Z,100185.23
2019-02-08T16:38:42.396Z,100185.23
2019-02-08T16:41:14.326Z,100187.88
2019-02-08T16:43:43.523Z,100161.23
2019-02-08T16:46:12.693Z,100165.68
2019-02-08T16:48:41.764Z,100160.96
2019-02-08T16:51:11.805Z,100160.96
2019-02-08T16:53:40.911Z,100158.41
2019-02-08T16:56:10.143Z,100159.23
2019-02-08T16:58:39.332Z,100156.42
2019-02-08T17:01:08.502Z,100141.48
2019-02-08T17:03:37.502Z,100141.48
2019-02-08T17:06:07.074Z,100141.48
2019-02-08T17:08:36.234Z,100130.41
2019-02-08T17:11:05.521Z,100130.41
2019-02-08T17:13:35.107Z,100124.21
2019-02-08T17:16:04.819Z,100121.11
2019-02-08T17:18:33.923Z,100110.38
2019-02-08T17:21:03.192Z,100106.55
2019-02-08T17:23:32.226Z,100113.84
2019-02-08T17:26:01.390Z,100103.21
2019-02-08T17:28:30.448Z,100105.10
2019-02-08T17:30:59.671Z,100095.73
2019-02-08T17:33:28.694Z,100086.89
2019-02-08T17:35:57.769Z,100091.23
2019-02-08T17:38:26.804Z,100091.23
2019-02-08T17:40:56.270Z,100073.42
2019-02-08T17:43:25.242Z,100071.03
2019-02-08T17:45:54.423Z,100060.05
2019-02-08T17:48:23.615Z,100068.50
2019-02-08T17:50:52.773Z,100049.23
2019-02-08T17:53:21.823Z,100049.23
2019-02-08T17:55:50.933Z,100044.21
2019-02-08T17:58:20.028Z,100047.53
2019-02-08T18:00:57.250Z,100056.02
2019-02-08T18:03:26.269Z,100051.75
2019-02-08T18:05:55.524Z,100044.37
2019-02-08T18:08:24.653Z,100047.27
2019-02-08T18:10:53.653Z,100035.61
2019-02-08T18:13:23.749Z,100035.61
2019-02-08T18:15:52.746Z,100016.69
2019-02-08T18:18:23.628Z,100016.69
2019-02-08T18:20:58.416Z,100008.30
2019-02-08T18:23:27.512Z,100020.22
2019-02-08T18:25:56.667Z,100020.22
2019-02-08T18:28:25.955Z,99994.30
2019-02-08T18:30:55.082Z,99994.30
2019-02-08T18:33:24.193Z,99978.69
2019-02-08T18:35:53.486Z,99975.21
2019-02-08T18:38:22.654Z,99965.58
2019-02-08T18:40:51.859Z,99955.47
2019-02-08T18:43:20.853Z,99968.13
2019-02-08T18:45:49.889Z,99959.13
2019-02-08T18:48:18.966Z,99959.13
2019-02-08T18:50:50.656Z,99947.75
2019-02-08T18:53:19.757Z,99953.38
2019-02-08T18:55:48.963Z,99939.36
2019-02-08T18:58:20.369Z,99941.38
2019-02-08T19:00:50.761Z,99949.17
2019-02-08T19:03:22.887Z,99943.37
2019-02-08T19:05:52.110Z,99949.02
2019-02-08T19:08:22.673Z,99949.02
2019-02-08T19:10:51.853Z,99934.47
2019-02-08T19:13:20.971Z,99934.47
2019-02-08T19:15:50.144Z,99924.47
2019-02-08T19:18:19.200Z,99924.47
2019-02-08T19:20:48.447Z,99918.97
2019-02-08T19:23:17.687Z,99909.37
2019-02-08T19:25:47.363Z,99909.37
2019-02-08T19:28:16.541Z,99911.58
2019-02-08T19:30:45.829Z,99910.14
2019-02-08T19:33:14.977Z,99910.14
2019-02-08T19:35:46.588Z,99895.05
2019-02-08T19:38:15.719Z,99896.05
2019-02-08T19:40:45.908Z,99899.98
2019-02-08T19:43:15.039Z,99889.09
2019-02-08T19:45:44.090Z,99880.25
2019-02-08T19:48:13.267Z,99880.25
2019-02-08T19:50:44.403Z,99877.98
2019-02-08T19:53:15.377Z,99877.98
2019-02-08T19:55:44.540Z,99865.55
2019-02-08T19:58:13.914Z,99862.39
2019-02-08T20:00:43.597Z,99870.48
2019-02-08T20:03:12.962Z,99870.48
2019-02-08T20:08:12.673Z,99840.52
2019-02-08T20:10:43.362Z,99833.61
2019-02-08T20:13:12.547Z,99832.87
2019-02-08T20:15:41.780Z,99832.87
2019-02-08T20:18:11.080Z,99822.06
2019-02-08T20:20:40.242Z,99823.45
2019-02-08T20:23:09.546Z,99831.79
2019-02-08T20:25:38.726Z,99831.79
2019-02-08T20:28:08.133Z,99824.72
2019-02-08T20:30:37.880Z,99811.02
2019-02-08T20:33:07.388Z,99811.02
2019-02-08T20:35:36.563Z,99809.11
2019-02-08T20:38:06.723Z,99813.72
2019-02-08T20:40:37.904Z,99810.12
2019-02-08T20:43:07.117Z,99789.83
2019-02-08T20:45:36.557Z,99789.83
2019-02-08T20:48:08.852Z,99778.94
2019-02-08T20:50:38.379Z,99779.74
2019-02-08T20:53:07.583Z,99786.84
2019-02-08T20:55:37.745Z,99788.72
2019-02-08T20:58:09.774Z,99788.72
2019-02-08T21:00:42.676Z,99570.03
2019-02-08T21:03:15.827Z,99783.27
2019-02-08T21:05:46.318Z,99786.08
2019-02-08T21:08:16.628Z,99786.08
2019-02-08T21:10:46.079Z,99799.59
2019-02-08T21:13:15.438Z,99776.96
2019-02-08T21:15:44.629Z,99776.96
2019-02-08T21:18:13.907Z,99787.98
2019-02-08T21:20:44.595Z,99787.98
2019-02-08T21:23:15.077Z,99787.92
2019-02-08T21:25:51.584Z,99784.38
2019-02-08T21:28:15.385Z,99763.39
2019-02-08T21:30:44.558Z,99772.47
2019-02-08T21:33:15.538Z,99772.47
2019-02-08T21:35:44.730Z,99779.60
2019-02-08T21:38:13.899Z,99773.52
2019-02-08T21:40:43.032Z,99773.52
2019-02-08T21:43:12.237Z,99768.23
2019-02-08T21:45:46.886Z,99758.01
2019-02-08T21:48:16.002Z,99758.01
2019-02-08T21:50:45.218Z,99739.91
2019-02-08T21:53:14.313Z,99736.66
2019-02-08T21:55:44.817Z,99736.66
2019-02-08T21:58:13.979Z,99749.72
2019-02-08T22:00:43.735Z,99741.75
2019-02-08T22:03:13.245Z,99736.72
2019-02-08T22:05:45.612Z,99745.72
2019-02-08T22:08:14.798Z,99742.80
2019-02-08T22:10:47.371Z,99725.80
2019-02-08T22:13:16.425Z,99725.80
2019-02-08T22:15:46.230Z,99721.72
2019-02-08T22:18:16.625Z,99737.48
2019-02-08T22:20:45.836Z,99740.69
2019-02-08T22:23:14.876Z,99761.25
2019-02-08T22:25:44.040Z,99761.25
2019-02-08T22:28:13.255Z,99748.27
2019-02-08T22:30:42.513Z,99735.67
2019-02-08T22:33:11.620Z,99744.39
2019-02-08T22:35:40.767Z,99744.39
2019-02-08T22:38:10.033Z,99714.22
2019-02-08T22:40:41.166Z,99702.06
2019-02-08T22:43:10.311Z,99702.06
2019-02-08T22:45:40.704Z,99709.59
2019-02-08T22:48:10.228Z,99688.08
2019-02-08T22:53:14.139Z,99703.34
2019-02-08T22:55:43.289Z,99689.52
2019-02-08T22:58:12.513Z,99681.73
2019-02-08T23:01:23.064Z,99682.71
2019-02-08T23:03:52.612Z,99682.71
2019-02-08T23:06:21.767Z,99677.91
2019-02-08T23:08:50.887Z,99670.45
2019-02-08T23:11:20.098Z,99670.45
2019-02-08T23:13:49.152Z,99646.81
2019-02-08T23:16:18.255Z,99674.16
2019-02-08T23:18:47.213Z,99674.16
2019-02-08T23:21:16.300Z,99674.08
2019-02-08T23:23:45.393Z,99647.12
2019-02-08T23:26:14.606Z,99647.12
2019-02-08T23:28:43.663Z,99671.11
2019-02-08T23:31:12.997Z,99671.11
2019-02-08T23:33:42.038Z,99669.47
2019-02-08T23:36:11.228Z,99643.41
2019-02-08T23:38:40.835Z,99660.54
2019-02-08T23:41:09.993Z,99661.09
2019-02-08T23:43:39.178Z,99661.09
2019-02-08T23:46:08.267Z,99656.35
2019-02-08T23:48:37.426Z,99642.18
2019-02-08T23:51:06.516Z,99640.53
2019-02-08T23:53:35.507Z,99646.41
2019-02-08T23:56:04.881Z,99650.41
2019-02-08T23:58:33.893Z,99650.41
